Mount Hood Parkdale, Oregon
Current Conditions -  °F | °C
As of 1:39 AM on Friday 31 Oct 2014 (Local Time) from K4S2 Reporting Station
Drizzle Drizzle  
Wind Chill: 52°   Ceiling: 100
Heat Index: 52°   Visibility: 0.5mi
Dew Point: 52°   Wind: 0mph
Humidity: 100%   Direction: NA
Pressure: 29.79"   Gusts: NA
Location:  45.52°N, 121.59°W
Report Text: K4S2 310839Z AUTO 00000KT 1/2SM DZ OVC001 11/11 A2979 RMK AO2 P0001 SLPNO
Loading
Personal Weather Stations






























Interactive Weather Map
Tropical Storm Tracking
New forecast layout! Learn more

10-Day Weather Forecast

Advertisements
Track Severe Weather on mobile